Volunteer, South Dakota
Current Conditions -  °F | °C
As of 12:58 AM on Friday 19 Dec 2014 (Local Time) from KRCA Reporting Station
Clear Clear  
Wind Chill: 21°   Ceiling: Unl
Heat Index: 28°   Visibility: 10mi
Dew Point: 18°   Wind: 6mph
Humidity: 66%   Direction: 250°WSW
Pressure: 29.98"   Gusts: NA
Location:  44.4145°N, 103.17°W
Report Text: KRCA 190758Z AUTO 25005KT 10SM CLR M02/M08 A2998 RMK AO2 SLP179 T10241079 $
Loading
Personal Weather Stations






























Interactive Weather Map New forecast layout! Learn more

10-Day Weather Forecast

Advertisements
Track Severe Weather on mobile